sensor_id;sensor_type;location;lat;lon;timestamp;temperature;humidity
64939;DHT22;51453;47.738;7.420;2023-06-14T00:01:02;17.60;96.40
64939;DHT22;51453;47.738;7.420;2023-06-14T00:03:31;17.60;96.60
64939;DHT22;51453;47.738;7.420;2023-06-14T00:05:58;17.60;96.50
64939;DHT22;51453;47.738;7.420;2023-06-14T00:08:23;17.60;96.60
64939;DHT22;51453;47.738;7.420;2023-06-14T00:10:50;17.60;96.60
64939;DHT22;51453;47.738;7.420;2023-06-14T00:13:16;17.50;97.00
64939;DHT22;51453;47.738;7.420;2023-06-14T00:15:42;17.50;97.40
64939;DHT22;51453;47.738;7.420;2023-06-14T00:18:08;17.50;97.60
64939;DHT22;51453;47.738;7.420;2023-06-14T00:20:37;17.50;97.60
64939;DHT22;51453;47.738;7.420;2023-06-14T00:23:02;17.50;97.10
64939;DHT22;51453;47.738;7.420;2023-06-14T00:25:28;17.40;96.90
64939;DHT22;51453;47.738;7.420;2023-06-14T00:27:55;17.40;97.20
64939;DHT22;51453;47.738;7.420;2023-06-14T00:30:21;17.30;97.40
64939;DHT22;51453;47.738;7.420;2023-06-14T00:32:47;17.30;97.60
64939;DHT22;51453;47.738;7.420;2023-06-14T00:35:13;17.30;97.40
64939;DHT22;51453;47.738;7.420;2023-06-14T00:37:39;17.30;96.90
64939;DHT22;51453;47.738;7.420;2023-06-14T00:40:06;17.30;97.20
64939;DHT22;51453;47.738;7.420;2023-06-14T00:42:32;17.30;96.70
64939;DHT22;51453;47.738;7.420;2023-06-14T00:44:58;17.30;97.40
64939;DHT22;51453;47.738;7.420;2023-06-14T00:47:24;17.20;98.30
64939;DHT22;51453;47.738;7.420;2023-06-14T00:49:50;17.20;98.20
64939;DHT22;51453;47.738;7.420;2023-06-14T00:52:17;17.00;98.60
64939;DHT22;51453;47.738;7.420;2023-06-14T00:54:43;16.90;98.80
64939;DHT22;51453;47.738;7.420;2023-06-14T00:57:10;16.90;98.30
64939;DHT22;51453;47.738;7.420;2023-06-14T00:59:44;16.80;98.80
64939;DHT22;51453;47.738;7.420;2023-06-14T01:02:11;16.80;98.90
64939;DHT22;51453;47.738;7.420;2023-06-14T01:04:38;16.70;98.90
64939;DHT22;51453;47.738;7.420;2023-06-14T01:07:28;16.70;98.60
64939;DHT22;51453;47.738;7.420;2023-06-14T01:15:21;16.40;99.40
64939;DHT22;51453;47.738;7.420;2023-06-14T01:17:49;16.10;99.90
64939;DHT22;51453;47.738;7.420;2023-06-14T01:20:17;15.90;99.90
64939;DHT22;51453;47.738;7.420;2023-06-14T01:22:54;15.70;99.90
64939;DHT22;51453;47.738;7.420;2023-06-14T01:25:21;15.50;99.90
64939;DHT22;51453;47.738;7.420;2023-06-14T01:30:18;15.10;99.90
64939;DHT22;51453;47.738;7.420;2023-06-14T01:32:45;15.00;99.90
64939;DHT22;51453;47.738;7.420;2023-06-14T01:35:11;14.90;99.90
64939;DHT22;51453;47.738;7.420;2023-06-14T01:37:37;14.80;99.90
64939;DHT22;51453;47.738;7.420;2023-06-14T01:40:06;14.70;99.90
64939;DHT22;51453;47.738;7.420;2023-06-14T01:42:34;14.60;99.90
64939;DHT22;51453;47.738;7.420;2023-06-14T01:45:02;14.60;99.90
64939;DHT22;51453;47.738;7.420;2023-06-14T01:47:29;14.60;99.90
64939;DHT22;51453;47.738;7.420;2023-06-14T01:49:55;14.60;99.90
64939;DHT22;51453;47.738;7.420;2023-06-14T01:52:21;14.70;99.90
64939;DHT22;51453;47.738;7.420;2023-06-14T01:54:47;14.60;99.90
64939;DHT22;51453;47.738;7.420;2023-06-14T01:57:15;14.70;99.90
64939;DHT22;51453;47.738;7.420;2023-06-14T01:59:40;14.60;99.90
64939;DHT22;51453;47.738;7.420;2023-06-14T02:02:06;14.60;99.90
64939;DHT22;51453;47.738;7.420;2023-06-14T02:04:32;14.60;99.90
64939;DHT22;51453;47.738;7.420;2023-06-14T02:06:57;14.60;99.90
64939;DHT22;51453;47.738;7.420;2023-06-14T02:09:23;14.60;99.90
64939;DHT22;51453;47.738;7.420;2023-06-14T02:11:49;14.60;99.90
64939;DHT22;51453;47.738;7.420;2023-06-14T02:14:14;14.60;99.90
64939;DHT22;51453;47.738;7.420;2023-06-14T02:16:42;14.50;99.90
64939;DHT22;51453;47.738;7.420;2023-06-14T02:19:14;14.40;99.90
64939;DHT22;51453;47.738;7.420;2023-06-14T02:21:40;14.20;99.90
64939;DHT22;51453;47.738;7.420;2023-06-14T02:24:06;14.10;99.90
64939;DHT22;51453;47.738;7.420;2023-06-14T02:26:32;14.00;99.90
64939;DHT22;51453;47.738;7.420;2023-06-14T02:28:58;13.90;99.90
64939;DHT22;51453;47.738;7.420;2023-06-14T02:31:23;13.80;99.90
64939;DHT22;51453;47.738;7.420;2023-06-14T02:33:49;13.70;99.90
64939;DHT22;51453;47.738;7.420;2023-06-14T02:36:15;13.60;99.90
64939;DHT22;51453;47.738;7.420;2023-06-14T02:38:41;13.50;99.90
64939;DHT22;51453;47.738;7.420;2023-06-14T02:41:06;13.40;99.90
64939;DHT22;51453;47.738;7.420;2023-06-14T02:43:32;13.30;99.90
64939;DHT22;51453;47.738;7.420;2023-06-14T02:45:58;13.30;99.90
64939;DHT22;51453;47.738;7.420;2023-06-14T02:48:23;13.20;99.90
64939;DHT22;51453;47.738;7.420;2023-06-14T02:50:49;13.10;99.90
64939;DHT22;51453;47.738;7.420;2023-06-14T02:53:15;13.00;99.90
64939;DHT22;51453;47.738;7.420;2023-06-14T02:55:41;12.90;99.90
64939;DHT22;51453;47.738;7.420;2023-06-14T02:58:07;12.80;99.90
64939;DHT22;51453;47.738;7.420;2023-06-14T03:00:32;12.80;99.90
64939;DHT22;51453;47.738;7.420;2023-06-14T03:02:58;12.80;99.90
64939;DHT22;51453;47.738;7.420;2023-06-14T03:05:27;12.70;99.90
64939;DHT22;51453;47.738;7.420;2023-06-14T03:07:53;12.60;99.90
64939;DHT22;51453;47.738;7.420;2023-06-14T03:10:19;12.60;99.90
64939;DHT22;51453;47.738;7.420;2023-06-14T03:12:45;12.50;99.90
64939;DHT22;51453;47.738;7.420;2023-06-14T03:15:10;12.50;99.90
64939;DHT22;51453;47.738;7.420;2023-06-14T03:17:38;12.50;99.90
64939;DHT22;51453;47.738;7.420;2023-06-14T03:20:05;12.50;99.90
64939;DHT22;51453;47.738;7.420;2023-06-14T03:22:31;12.40;99.90
64939;DHT22;51453;47.738;7.420;2023-06-14T03:24:59;12.40;99.90
64939;DHT22;51453;47.738;7.420;2023-06-14T03:27:25;12.40;99.90
64939;DHT22;51453;47.738;7.420;2023-06-14T03:29:54;12.30;99.90
64939;DHT22;51453;47.738;7.420;2023-06-14T03:32:19;12.30;99.90
64939;DHT22;51453;47.738;7.420;2023-06-14T03:34:45;12.30;99.90
64939;DHT22;51453;47.738;7.420;2023-06-14T03:37:11;12.30;99.90
64939;DHT22;51453;47.738;7.420;2023-06-14T03:39:37;12.30;99.90
64939;DHT22;51453;47.738;7.420;2023-06-14T03:42:03;12.30;99.90
64939;DHT22;51453;47.738;7.420;2023-06-14T03:44:29;12.30;99.90
64939;DHT22;51453;47.738;7.420;2023-06-14T03:46:55;12.30;99.90
64939;DHT22;51453;47.738;7.420;2023-06-14T03:49:21;12.30;99.90
64939;DHT22;51453;47.738;7.420;2023-06-14T03:51:46;12.30;99.90
64939;DHT22;51453;47.738;7.420;2023-06-14T03:54:16;12.30;99.90
64939;DHT22;51453;47.738;7.420;2023-06-14T03:56:42;12.30;99.90
64939;DHT22;51453;47.738;7.420;2023-06-14T03:59:07;12.30;99.90
64939;DHT22;51453;47.738;7.420;2023-06-14T04:01:33;12.30;99.90
64939;DHT22;51453;47.738;7.420;2023-06-14T04:03:59;12.40;99.90
64939;DHT22;51453;47.738;7.420;2023-06-14T04:06:25;12.40;99.90
64939;DHT22;51453;47.738;7.420;2023-06-14T04:08:58;12.50;99.90
64939;DHT22;51453;47.738;7.420;2023-06-14T04:11:26;12.60;99.90
64939;DHT22;51453;47.738;7.420;2023-06-14T04:13:52;12.80;99.90
64939;DHT22;51453;47.738;7.420;2023-06-14T04:16:19;13.20;99.90
64939;DHT22;51453;47.738;7.420;2023-06-14T04:18:44;13.60;99.90
64939;DHT22;51453;47.738;7.420;2023-06-14T04:21:12;14.20;99.90
64939;DHT22;51453;47.738;7.420;2023-06-14T04:23:37;14.90;99.90
64939;DHT22;51453;47.738;7.420;2023-06-14T04:26:03;15.40;99.90
64939;DHT22;51453;47.738;7.420;2023-06-14T04:28:29;16.00;99.90
64939;DHT22;51453;47.738;7.420;2023-06-14T04:30:55;16.50;99.90
64939;DHT22;51453;47.738;7.420;2023-06-14T04:33:21;17.00;99.90
64939;DHT22;51453;47.738;7.420;2023-06-14T04:35:50;17.40;99.90
64939;DHT22;51453;47.738;7.420;2023-06-14T04:38:19;17.80;99.90
64939;DHT22;51453;47.738;7.420;2023-06-14T04:40:49;18.20;99.90
64939;DHT22;51453;47.738;7.420;2023-06-14T04:43:18;18.70;99.90
64939;DHT22;51453;47.738;7.420;2023-06-14T04:45:43;19.10;99.90
64939;DHT22;51453;47.738;7.420;2023-06-14T04:48:12;19.50;99.90
64939;DHT22;51453;47.738;7.420;2023-06-14T04:50:37;19.90;99.90
64939;DHT22;51453;47.738;7.420;2023-06-14T04:53:05;20.30;99.90
64939;DHT22;51453;47.738;7.420;2023-06-14T04:55:32;20.60;99.90
64939;DHT22;51453;47.738;7.420;2023-06-14T04:57:58;20.90;99.90
64939;DHT22;51453;47.738;7.420;2023-06-14T05:00:23;21.00;99.90
64939;DHT22;51453;47.738;7.420;2023-06-14T05:02:49;21.20;99.90
64939;DHT22;51453;47.738;7.420;2023-06-14T05:05:16;21.30;99.90
64939;DHT22;51453;47.738;7.420;2023-06-14T05:07:42;21.40;99.90
64939;DHT22;51453;47.738;7.420;2023-06-14T05:10:08;21.50;99.90
64939;DHT22;51453;47.738;7.420;2023-06-14T05:12:35;21.70;99.90
64939;DHT22;51453;47.738;7.420;2023-06-14T05:15:00;21.60;99.90
64939;DHT22;51453;47.738;7.420;2023-06-14T05:17:26;21.80;99.90
64939;DHT22;51453;47.738;7.420;2023-06-14T05:19:53;22.00;99.90
64939;DHT22;51453;47.738;7.420;2023-06-14T05:22:19;22.10;99.90
64939;DHT22;51453;47.738;7.420;2023-06-14T05:24:44;22.30;99.90
64939;DHT22;51453;47.738;7.420;2023-06-14T05:27:11;22.40;99.90
64939;DHT22;51453;47.738;7.420;2023-06-14T05:29:37;22.40;99.90
64939;DHT22;51453;47.738;7.420;2023-06-14T05:32:03;22.30;99.90
64939;DHT22;51453;47.738;7.420;2023-06-14T05:34:28;22.10;99.90
64939;DHT22;51453;47.738;7.420;2023-06-14T05:36:54;21.80;99.90
64939;DHT22;51453;47.738;7.420;2023-06-14T05:39:20;21.70;99.90
64939;DHT22;51453;47.738;7.420;2023-06-14T05:41:46;21.60;99.90
64939;DHT22;51453;47.738;7.420;2023-06-14T05:44:11;21.70;99.90
64939;DHT22;51453;47.738;7.420;2023-06-14T05:46:37;21.90;99.90
64939;DHT22;51453;47.738;7.420;2023-06-14T05:49:05;22.10;99.90
64939;DHT22;51453;47.738;7.420;2023-06-14T05:51:30;22.30;99.90
64939;DHT22;51453;47.738;7.420;2023-06-14T05:53:56;22.20;99.90
64939;DHT22;51453;47.738;7.420;2023-06-14T05:56:22;22.10;99.90
64939;DHT22;51453;47.738;7.420;2023-06-14T05:58:47;22.10;99.90
64939;DHT22;51453;47.738;7.420;2023-06-14T06:01:14;22.10;99.90
64939;DHT22;51453;47.738;7.420;2023-06-14T06:03:40;22.20;99.90
64939;DHT22;51453;47.738;7.420;2023-06-14T06:06:05;22.40;99.90
64939;DHT22;51453;47.738;7.420;2023-06-14T06:08:32;22.50;99.90
64939;DHT22;51453;47.738;7.420;2023-06-14T06:10:57;22.60;99.90
64939;DHT22;51453;47.738;7.420;2023-06-14T06:13:23;22.50;99.90
64939;DHT22;51453;47.738;7.420;2023-06-14T06:15:49;22.40;99.90
64939;DHT22;51453;47.738;7.420;2023-06-14T06:18:14;22.40;99.90
64939;DHT22;51453;47.738;7.420;2023-06-14T06:20:40;22.50;99.90
64939;DHT22;51453;47.738;7.420;2023-06-14T06:23:05;22.50;99.70
64939;DHT22;51453;47.738;7.420;2023-06-14T06:25:31;22.10;99.10
64939;DHT22;51453;47.738;7.420;2023-06-14T06:27:57;21.80;99.90
64939;DHT22;51453;47.738;7.420;2023-06-14T06:30:24;21.80;99.90
64939;DHT22;51453;47.738;7.420;2023-06-14T06:32:50;21.60;99.90
64939;DHT22;51453;47.738;7.420;2023-06-14T06:35:16;21.50;99.90
64939;DHT22;51453;47.738;7.420;2023-06-14T06:37:42;21.50;99.90
64939;DHT22;51453;47.738;7.420;2023-06-14T06:40:08;21.80;99.90
64939;DHT22;51453;47.738;7.420;2023-06-14T06:42:34;21.50;99.90
64939;DHT22;51453;47.738;7.420;2023-06-14T06:45:00;21.60;99.90
64939;DHT22;51453;47.738;7.420;2023-06-14T06:47:26;21.60;99.90
64939;DHT22;51453;47.738;7.420;2023-06-14T06:49:52;21.60;99.90
64939;DHT22;51453;47.738;7.420;2023-06-14T06:52:17;21.60;99.90
64939;DHT22;51453;47.738;7.420;2023-06-14T06:54:43;21.80;99.90
64939;DHT22;51453;47.738;7.420;2023-06-14T06:57:09;21.60;99.90
64939;DHT22;51453;47.738;7.420;2023-06-14T06:59:36;21.90;99.90
64939;DHT22;51453;47.738;7.420;2023-06-14T07:02:02;22.10;99.90
64939;DHT22;51453;47.738;7.420;2023-06-14T07:04:27;22.30;99.90
64939;DHT22;51453;47.738;7.420;2023-06-14T07:06:53;22.50;99.90
64939;DHT22;51453;47.738;7.420;2023-06-14T07:09:19;22.70;99.90
64939;DHT22;51453;47.738;7.420;2023-06-14T07:11:46;22.60;99.90
64939;DHT22;51453;47.738;7.420;2023-06-14T07:14:12;22.50;99.90
64939;DHT22;51453;47.738;7.420;2023-06-14T07:16:37;22.70;99.90
64939;DHT22;51453;47.738;7.420;2023-06-14T07:19:03;23.00;99.90
64939;DHT22;51453;47.738;7.420;2023-06-14T07:21:29;22.90;99.90
64939;DHT22;51453;47.738;7.420;2023-06-14T07:23:55;22.60;99.90
64939;DHT22;51453;47.738;7.420;2023-06-14T07:26:21;22.60;99.90
64939;DHT22;51453;47.738;7.420;2023-06-14T07:28:47;22.50;99.90
64939;DHT22;51453;47.738;7.420;2023-06-14T07:31:14;22.60;99.90
64939;DHT22;51453;47.738;7.420;2023-06-14T07:33:41;22.70;99.90
64939;DHT22;51453;47.738;7.420;2023-06-14T07:36:07;22.50;99.90
64939;DHT22;51453;47.738;7.420;2023-06-14T07:38:33;22.60;99.90
64939;DHT22;51453;47.738;7.420;2023-06-14T07:40:59;22.60;99.90
64939;DHT22;51453;47.738;7.420;2023-06-14T07:43:25;22.80;99.90
64939;DHT22;51453;47.738;7.420;2023-06-14T07:45:50;22.90;99.90
64939;DHT22;51453;47.738;7.420;2023-06-14T07:48:16;23.00;99.90
64939;DHT22;51453;47.738;7.420;2023-06-14T07:50:42;23.00;99.60
64939;DHT22;51453;47.738;7.420;2023-06-14T07:53:08;22.90;99.70
64939;DHT22;51453;47.738;7.420;2023-06-14T07:55:34;22.90;99.90
64939;DHT22;51453;47.738;7.420;2023-06-14T07:58:02;23.20;99.20
64939;DHT22;51453;47.738;7.420;2023-06-14T08:00:28;23.40;97.90
64939;DHT22;51453;47.738;7.420;2023-06-14T08:02:54;23.30;98.00
64939;DHT22;51453;47.738;7.420;2023-06-14T08:05:24;23.50;98.00
64939;DHT22;51453;47.738;7.420;2023-06-14T08:07:51;23.60;98.40
64939;DHT22;51453;47.738;7.420;2023-06-14T08:10:17;23.70;97.50
64939;DHT22;51453;47.738;7.420;2023-06-14T08:12:43;23.90;97.20
64939;DHT22;51453;47.738;7.420;2023-06-14T08:15:09;23.90;97.20
64939;DHT22;51453;47.738;7.420;2023-06-14T08:17:34;23.80;96.30
64939;DHT22;51453;47.738;7.420;2023-06-14T08:20:00;23.80;96.90
64939;DHT22;51453;47.738;7.420;2023-06-14T08:22:26;24.00;95.80
64939;DHT22;51453;47.738;7.420;2023-06-14T08:24:53;24.20;94.90
64939;DHT22;51453;47.738;7.420;2023-06-14T08:27:19;24.20;94.90
64939;DHT22;51453;47.738;7.420;2023-06-14T08:29:45;24.30;95.60
64939;DHT22;51453;47.738;7.420;2023-06-14T08:32:12;24.30;94.20
64939;DHT22;51453;47.738;7.420;2023-06-14T08:34:37;24.40;95.00
64939;DHT22;51453;47.738;7.420;2023-06-14T08:37:03;24.50;93.70
64939;DHT22;51453;47.738;7.420;2023-06-14T08:39:30;24.40;93.70
64939;DHT22;51453;47.738;7.420;2023-06-14T08:41:56;24.70;93.70
64939;DHT22;51453;47.738;7.420;2023-06-14T08:44:22;24.60;92.60
64939;DHT22;51453;47.738;7.420;2023-06-14T08:46:48;24.60;91.50
64939;DHT22;51453;47.738;7.420;2023-06-14T08:49:16;24.60;92.90
64939;DHT22;51453;47.738;7.420;2023-06-14T08:51:43;24.80;93.20
64939;DHT22;51453;47.738;7.420;2023-06-14T08:54:10;24.80;91.20
64939;DHT22;51453;47.738;7.420;2023-06-14T08:56:38;24.90;92.30
64939;DHT22;51453;47.738;7.420;2023-06-14T08:59:04;25.00;91.70
64939;DHT22;51453;47.738;7.420;2023-06-14T09:01:33;25.10;87.80
64939;DHT22;51453;47.738;7.420;2023-06-14T09:03:59;25.00;89.70
64939;DHT22;51453;47.738;7.420;2023-06-14T09:06:25;24.70;90.10
64939;DHT22;51453;47.738;7.420;2023-06-14T09:08:54;24.60;91.20
64939;DHT22;51453;47.738;7.420;2023-06-14T09:11:22;24.70;91.80
64939;DHT22;51453;47.738;7.420;2023-06-14T09:13:49;24.90;90.40
64939;DHT22;51453;47.738;7.420;2023-06-14T09:16:15;25.10;90.30
64939;DHT22;51453;47.738;7.420;2023-06-14T09:18:43;25.00;88.00
64939;DHT22;51453;47.738;7.420;2023-06-14T09:21:11;25.30;84.10
64939;DHT22;51453;47.738;7.420;2023-06-14T09:23:38;25.40;86.20
64939;DHT22;51453;47.738;7.420;2023-06-14T09:28:41;25.70;83.70
64939;DHT22;51453;47.738;7.420;2023-06-14T09:31:07;25.70;82.70
64939;DHT22;51453;47.738;7.420;2023-06-14T09:33:35;25.70;88.60
64939;DHT22;51453;47.738;7.420;2023-06-14T09:36:01;25.70;86.70
64939;DHT22;51453;47.738;7.420;2023-06-14T09:38:26;25.50;81.80
64939;DHT22;51453;47.738;7.420;2023-06-14T09:40:52;25.70;84.80
64939;DHT22;51453;47.738;7.420;2023-06-14T09:43:18;25.90;82.30
64939;DHT22;51453;47.738;7.420;2023-06-14T09:45:45;25.90;82.60
64939;DHT22;51453;47.738;7.420;2023-06-14T09:48:12;25.90;84.10
64939;DHT22;51453;47.738;7.420;2023-06-14T09:50:46;26.00;83.40
64939;DHT22;51453;47.738;7.420;2023-06-14T09:53:15;25.80;82.10
64939;DHT22;51453;47.738;7.420;2023-06-14T09:55:41;25.90;84.10
64939;DHT22;51453;47.738;7.420;2023-06-14T09:58:09;25.90;83.70
64939;DHT22;51453;47.738;7.420;2023-06-14T10:00:36;26.00;84.70
64939;DHT22;51453;47.738;7.420;2023-06-14T10:03:25;26.10;85.20
64939;DHT22;51453;47.738;7.420;2023-06-14T10:05:54;26.20;83.20
64939;DHT22;51453;47.738;7.420;2023-06-14T10:08:24;26.20;83.70
64939;DHT22;51453;47.738;7.420;2023-06-14T10:10:55;26.10;83.50
64939;DHT22;51453;47.738;7.420;2023-06-14T10:13:21;26.10;84.00
64939;DHT22;51453;47.738;7.420;2023-06-14T10:16:12;26.30;82.70
64939;DHT22;51453;47.738;7.420;2023-06-14T10:24:15;26.30;82.80
64939;DHT22;51453;47.738;7.420;2023-06-14T10:26:54;26.40;81.20
64939;DHT22;51453;47.738;7.420;2023-06-14T10:29:20;26.50;82.40
64939;DHT22;51453;47.738;7.420;2023-06-14T10:31:50;26.70;82.00
64939;DHT22;51453;47.738;7.420;2023-06-14T10:34:30;26.80;81.30
64939;DHT22;51453;47.738;7.420;2023-06-14T10:37:04;26.80;80.50
64939;DHT22;51453;47.738;7.420;2023-06-14T10:39:31;26.70;83.50
64939;DHT22;51453;47.738;7.420;2023-06-14T10:41:57;26.70;79.00
64939;DHT22;51453;47.738;7.420;2023-06-14T10:46:52;26.70;77.80
64939;DHT22;51453;47.738;7.420;2023-06-14T10:49:19;26.90;77.90
64939;DHT22;51453;47.738;7.420;2023-06-14T10:51:54;26.80;77.20
64939;DHT22;51453;47.738;7.420;2023-06-14T10:54:22;27.10;76.20
64939;DHT22;51453;47.738;7.420;2023-06-14T10:56:50;27.30;77.40
64939;DHT22;51453;47.738;7.420;2023-06-14T10:59:17;27.20;77.30
64939;DHT22;51453;47.738;7.420;2023-06-14T11:12:48;26.90;78.40
64939;DHT22;51453;47.738;7.420;2023-06-14T11:15:15;26.80;76.40
64939;DHT22;51453;47.738;7.420;2023-06-14T11:17:53;26.90;77.00
64939;DHT22;51453;47.738;7.420;2023-06-14T11:20:19;27.00;76.80
64939;DHT22;51453;47.738;7.420;2023-06-14T11:22:45;27.10;77.20
64939;DHT22;51453;47.738;7.420;2023-06-14T11:25:12;27.20;76.60
64939;DHT22;51453;47.738;7.420;2023-06-14T11:27:37;27.40;76.40
64939;DHT22;51453;47.738;7.420;2023-06-14T11:30:06;27.40;75.30
64939;DHT22;51453;47.738;7.420;2023-06-14T11:32:32;27.50;75.50
64939;DHT22;51453;47.738;7.420;2023-06-14T11:34:58;27.60;73.30
64939;DHT22;51453;47.738;7.420;2023-06-14T11:37:26;27.60;74.40
64939;DHT22;51453;47.738;7.420;2023-06-14T11:39:56;27.70;74.60
64939;DHT22;51453;47.738;7.420;2023-06-14T11:42:22;27.60;74.50
64939;DHT22;51453;47.738;7.420;2023-06-14T11:44:48;27.70;72.30
64939;DHT22;51453;47.738;7.420;2023-06-14T11:47:14;27.60;72.10
64939;DHT22;51453;47.738;7.420;2023-06-14T11:49:40;27.40;72.30
64939;DHT22;51453;47.738;7.420;2023-06-14T11:52:06;27.60;71.90
64939;DHT22;51453;47.738;7.420;2023-06-14T11:54:32;27.60;72.90
64939;DHT22;51453;47.738;7.420;2023-06-14T11:56:58;27.50;75.10
64939;DHT22;51453;47.738;7.420;2023-06-14T11:59:24;27.40;74.30
64939;DHT22;51453;47.738;7.420;2023-06-14T12:01:50;27.50;73.60
64939;DHT22;51453;47.738;7.420;2023-06-14T12:04:24;27.50;72.50
64939;DHT22;51453;47.738;7.420;2023-06-14T12:06:50;27.60;73.70
64939;DHT22;51453;47.738;7.420;2023-06-14T12:09:19;27.50;73.20
64939;DHT22;51453;47.738;7.420;2023-06-14T12:11:45;27.70;74.50
64939;DHT22;51453;47.738;7.420;2023-06-14T12:14:11;27.80;72.50
64939;DHT22;51453;47.738;7.420;2023-06-14T12:16:40;27.80;71.00
64939;DHT22;51453;47.738;7.420;2023-06-14T12:19:13;27.70;73.70
64939;DHT22;51453;47.738;7.420;2023-06-14T12:21:40;27.60;72.00
64939;DHT22;51453;47.738;7.420;2023-06-14T12:24:07;27.70;72.40
64939;DHT22;51453;47.738;7.420;2023-06-14T12:26:33;27.80;73.60
64939;DHT22;51453;47.738;7.420;2023-06-14T12:28:59;27.60;71.00
64939;DHT22;51453;47.738;7.420;2023-06-14T12:31:25;27.60;71.80
64939;DHT22;51453;47.738;7.420;2023-06-14T12:33:52;27.60;73.70
64939;DHT22;51453;47.738;7.420;2023-06-14T12:36:17;27.70;73.60
64939;DHT22;51453;47.738;7.420;2023-06-14T12:38:43;27.80;70.50
64939;DHT22;51453;47.738;7.420;2023-06-14T12:41:09;28.10;71.80
64939;DHT22;51453;47.738;7.420;2023-06-14T12:43:35;28.20;72.40
64939;DHT22;51453;47.738;7.420;2023-06-14T12:46:00;28.30;71.60
64939;DHT22;51453;47.738;7.420;2023-06-14T12:48:26;28.10;72.80
64939;DHT22;51453;47.738;7.420;2023-06-14T12:50:57;28.20;73.80
64939;DHT22;51453;47.738;7.420;2023-06-14T12:53:23;28.20;74.20
64939;DHT22;51453;47.738;7.420;2023-06-14T12:55:48;28.40;72.60
64939;DHT22;51453;47.738;7.420;2023-06-14T12:58:14;28.30;71.00
64939;DHT22;51453;47.738;7.420;2023-06-14T13:00:42;28.10;71.10
64939;DHT22;51453;47.738;7.420;2023-06-14T13:03:08;28.00;73.50
64939;DHT22;51453;47.738;7.420;2023-06-14T13:05:33;28.10;75.10
64939;DHT22;51453;47.738;7.420;2023-06-14T13:07:59;28.40;70.90
64939;DHT22;51453;47.738;7.420;2023-06-14T13:10:26;28.60;70.10
64939;DHT22;51453;47.738;7.420;2023-06-14T13:12:51;28.70;70.10
64939;DHT22;51453;47.738;7.420;2023-06-14T13:15:17;28.90;69.80
64939;DHT22;51453;47.738;7.420;2023-06-14T13:17:43;29.10;71.00
64939;DHT22;51453;47.738;7.420;2023-06-14T13:20:14;28.90;70.10
64939;DHT22;51453;47.738;7.420;2023-06-14T13:22:39;28.90;71.30
64939;DHT22;51453;47.738;7.420;2023-06-14T13:25:06;28.90;68.80
64939;DHT22;51453;47.738;7.420;2023-06-14T13:27:31;28.90;69.50
64939;DHT22;51453;47.738;7.420;2023-06-14T13:29:57;28.80;71.70
64939;DHT22;51453;47.738;7.420;2023-06-14T13:32:23;28.90;69.60
64939;DHT22;51453;47.738;7.420;2023-06-14T13:34:49;28.90;70.00
64939;DHT22;51453;47.738;7.420;2023-06-14T13:37:15;28.70;70.30
64939;DHT22;51453;47.738;7.420;2023-06-14T13:39:41;28.90;71.60
64939;DHT22;51453;47.738;7.420;2023-06-14T13:42:07;29.00;68.80
64939;DHT22;51453;47.738;7.420;2023-06-14T13:44:32;28.80;68.40
64939;DHT22;51453;47.738;7.420;2023-06-14T13:46:58;28.60;69.10
64939;DHT22;51453;47.738;7.420;2023-06-14T13:49:24;28.50;70.70
64939;DHT22;51453;47.738;7.420;2023-06-14T13:51:49;28.50;69.80
64939;DHT22;51453;47.738;7.420;2023-06-14T13:54:17;28.40;70.10
64939;DHT22;51453;47.738;7.420;2023-06-14T13:56:44;28.60;72.10
64939;DHT22;51453;47.738;7.420;2023-06-14T13:59:10;28.80;71.70
64939;DHT22;51453;47.738;7.420;2023-06-14T14:01:36;28.80;67.80
64939;DHT22;51453;47.738;7.420;2023-06-14T14:04:02;28.80;70.40
64939;DHT22;51453;47.738;7.420;2023-06-14T14:06:27;28.80;69.80
64939;DHT22;51453;47.738;7.420;2023-06-14T14:08:53;28.70;69.30
64939;DHT22;51453;47.738;7.420;2023-06-14T14:11:19;28.50;69.30
64939;DHT22;51453;47.738;7.420;2023-06-14T14:13:46;28.40;69.90
64939;DHT22;51453;47.738;7.420;2023-06-14T14:16:12;28.20;70.10
64939;DHT22;51453;47.738;7.420;2023-06-14T14:18:38;28.00;71.70
64939;DHT22;51453;47.738;7.420;2023-06-14T14:21:04;28.10;70.90
64939;DHT22;51453;47.738;7.420;2023-06-14T14:23:30;28.10;71.70
64939;DHT22;51453;47.738;7.420;2023-06-14T14:25:56;28.20;69.90
64939;DHT22;51453;47.738;7.420;2023-06-14T14:28:22;28.20;70.60
64939;DHT22;51453;47.738;7.420;2023-06-14T14:30:48;28.20;70.10
64939;DHT22;51453;47.738;7.420;2023-06-14T14:33:14;28.20;70.00
64939;DHT22;51453;47.738;7.420;2023-06-14T14:35:43;28.30;70.00
64939;DHT22;51453;47.738;7.420;2023-06-14T14:38:14;28.30;70.70
64939;DHT22;51453;47.738;7.420;2023-06-14T14:40:44;28.20;68.60
64939;DHT22;51453;47.738;7.420;2023-06-14T14:43:10;28.10;70.80
64939;DHT22;51453;47.738;7.420;2023-06-14T14:45:36;28.00;69.40
64939;DHT22;51453;47.738;7.420;2023-06-14T14:48:02;27.80;71.70
64939;DHT22;51453;47.738;7.420;2023-06-14T14:50:28;27.80;70.20
64939;DHT22;51453;47.738;7.420;2023-06-14T14:52:54;27.90;70.10
64939;DHT22;51453;47.738;7.420;2023-06-14T14:55:20;27.80;69.90
64939;DHT22;51453;47.738;7.420;2023-06-14T14:57:46;27.90;71.70
64939;DHT22;51453;47.738;7.420;2023-06-14T15:00:15;28.20;70.60
64939;DHT22;51453;47.738;7.420;2023-06-14T15:02:41;28.10;70.00
64939;DHT22;51453;47.738;7.420;2023-06-14T15:05:07;28.20;70.60
64939;DHT22;51453;47.738;7.420;2023-06-14T15:07:33;28.20;70.70
64939;DHT22;51453;47.738;7.420;2023-06-14T15:09:59;28.50;69.40
64939;DHT22;51453;47.738;7.420;2023-06-14T15:12:25;28.40;69.20
64939;DHT22;51453;47.738;7.420;2023-06-14T15:14:51;28.30;69.80
64939;DHT22;51453;47.738;7.420;2023-06-14T15:17:17;28.40;70.40
64939;DHT22;51453;47.738;7.420;2023-06-14T15:19:47;28.60;71.90
64939;DHT22;51453;47.738;7.420;2023-06-14T15:22:16;28.50;69.60
64939;DHT22;51453;47.738;7.420;2023-06-14T15:24:42;28.60;71.30
64939;DHT22;51453;47.738;7.420;2023-06-14T15:27:08;28.60;70.00
64939;DHT22;51453;47.738;7.420;2023-06-14T15:29:34;28.70;69.50
64939;DHT22;51453;47.738;7.420;2023-06-14T15:32:01;28.50;70.80
64939;DHT22;51453;47.738;7.420;2023-06-14T15:34:26;28.40;69.70
64939;DHT22;51453;47.738;7.420;2023-06-14T15:36:52;28.20;68.50
64939;DHT22;51453;47.738;7.420;2023-06-14T15:39:17;28.10;69.30
64939;DHT22;51453;47.738;7.420;2023-06-14T15:41:43;28.10;70.20
64939;DHT22;51453;47.738;7.420;2023-06-14T15:44:09;27.90;69.00
64939;DHT22;51453;47.738;7.420;2023-06-14T15:46:35;27.90;70.10
64939;DHT22;51453;47.738;7.420;2023-06-14T15:49:01;27.80;70.30
64939;DHT22;51453;47.738;7.420;2023-06-14T15:51:28;27.90;69.50
64939;DHT22;51453;47.738;7.420;2023-06-14T15:53:53;27.70;69.00
64939;DHT22;51453;47.738;7.420;2023-06-14T15:56:19;27.60;70.90